Time,TemperatureF,DewpointF,PressureIn,WindDirection,WindDirectionDegrees,WindSpeedMPH,WindSpeedGustMPH,Humidity,HourlyPrecipIn,Conditions,Clouds,dailyrainin,SoftwareType,DateUTC
2013-05-19 00:01:00,53.8,52.1,21.26,WSW,244,0.0,0.0,94,0.00,,BKN200,0.00,VWS V14.00,2013-05-19 06:01:00,
2013-05-19 00:06:00,53.8,52.1,21.26,West,266,0.0,0.0,94,0.00,,BKN200,0.00,VWS V14.00,2013-05-19 06:06:00,
2013-05-19 00:11:00,53.6,51.9,21.26,WSW,249,3.6,3.6,94,0.00,,BKN200,0.00,VWS V14.00,2013-05-19 06:11:00,
2013-05-19 00:16:00,53.6,51.9,21.26,WNW,300,0.0,5.8,94,0.00,,BKN200,0.00,VWS V14.00,2013-05-19 06:16:00,
2013-05-19 00:21:00,53.6,51.9,21.26,WNW,300,0.0,5.8,94,0.00,,BKN200,0.00,VWS V14.00,2013-05-19 06:21:00,
2013-05-19 00:26:00,53.4,51.7,21.26,NNW,333,4.0,5.8,94,0.00,,BKN200,0.00,VWS V14.00,2013-05-19 06:26:00,
2013-05-19 00:31:00,53.2,51.6,21.26,NNW,332,0.0,0.0,94,0.00,,BKN200,0.00,VWS V14.00,2013-05-19 06:31:00,
2013-05-19 00:36:00,53.2,51.6,21.26,West,281,2.7,4.9,94,0.00,,BKN200,0.00,VWS V14.00,2013-05-19 06:36:00,
2013-05-19 00:41:00,53.1,51.4,21.26,NW,315,0.0,4.9,94,0.00,,BKN200,0.00,VWS V14.00,2013-05-19 06:41:00,
2013-05-19 00:46:00,53.1,51.4,21.26,NW,311,0.0,4.9,94,0.00,,BKN200,0.00,VWS V14.00,2013-05-19 06:46:00,
2013-05-19 00:51:00,52.9,50.9,21.26,NW,305,0.0,4.9,93,0.00,,BKN200,0.00,VWS V14.00,2013-05-19 06:51:00,
2013-05-19 00:56:00,52.7,50.7,21.26,West,275,0.0,5.8,93,0.00,,BKN200,0.00,VWS V14.00,2013-05-19 06:56:00,
2013-05-19 01:01:00,52.7,50.7,21.26,WNW,282,0.0,3.6,93,0.00,,BKN200,0.00,VWS V14.00,2013-05-19 07:01:00,
2013-05-19 01:06:00,52.7,50.7,21.26,NW,320,3.1,5.8,93,0.00,,BKN200,0.00,VWS V14.00,2013-05-19 07:06:00,
2013-05-19 01:11:00,52.7,50.5,21.26,NW,316,2.7,5.8,92,0.00,,BKN200,0.00,VWS V14.00,2013-05-19 07:11:00,
2013-05-19 01:16:00,52.5,50.3,21.26,WNW,298,4.0,6.3,92,0.00,,BKN200,0.00,VWS V14.00,2013-05-19 07:16:00,
2013-05-19 01:21:00,52.5,50.3,21.26,West,281,2.7,6.3,92,0.00,,BKN200,0.00,VWS V14.00,2013-05-19 07:21:00,
2013-05-19 01:26:00,52.5,50.3,21.26,WNW,286,0.0,6.3,92,0.00,,BKN200,0.00,VWS V14.00,2013-05-19 07:26:00,
2013-05-19 01:31:00,52.5,50.3,21.26,WNW,286,0.0,0.0,92,0.00,,BKN200,0.00,VWS V14.00,2013-05-19 07:31:00,
2013-05-19 01:36:00,52.5,50.3,21.26,WNW,286,0.0,0.0,92,0.00,,BKN200,0.00,VWS V14.00,2013-05-19 07:36:00,
2013-05-19 01:41:00,52.5,50.3,21.26,WNW,287,0.0,0.0,92,0.00,,BKN200,0.00,VWS V14.00,2013-05-19 07:41:00,
2013-05-19 01:46:00,52.5,50.3,21.26,WNW,285,0.0,0.0,92,0.00,,BKN200,0.00,VWS V14.00,2013-05-19 07:46:00,
2013-05-19 01:51:00,52.5,50.3,21.26,WNW,286,0.0,0.0,92,0.00,,BKN200,0.00,VWS V14.00,2013-05-19 07:51:00,
2013-05-19 01:56:00,52.5,50.3,21.26,WNW,286,0.0,0.0,92,0.00,,BKN200,0.00,VWS V14.00,2013-05-19 07:56:00,
2013-05-19 02:01:00,52.5,50.6,21.26,WNW,286,0.0,0.0,93,0.00,,BKN200,0.00,VWS V14.00,2013-05-19 08:01:00,
2013-05-19 02:06:00,52.5,50.6,21.26,WNW,286,0.0,0.0,93,0.00,,BKN200,0.00,VWS V14.00,2013-05-19 08:06:00,
2013-05-19 02:11:00,52.5,50.6,21.26,WNW,286,0.0,0.0,93,0.00,,BKN200,0.00,VWS V14.00,2013-05-19 08:11:00,
2013-05-19 02:16:00,52.5,50.6,21.26,WNW,285,0.0,0.0,93,0.00,,BKN200,0.00,VWS V14.00,2013-05-19 08:16:00,
2013-05-19 02:21:00,52.3,50.4,21.26,WNW,283,0.0,0.0,93,0.00,,BKN200,0.00,VWS V14.00,2013-05-19 08:21:00,
2013-05-19 02:26:00,52.5,50.6,21.26,West,270,3.6,6.3,93,0.00,,BKN200,0.00,VWS V14.00,2013-05-19 08:26:00,
2013-05-19 02:31:00,52.5,50.6,21.26,West,271,0.0,0.0,93,0.00,,BKN200,0.00,VWS V14.00,2013-05-19 08:31:00,
2013-05-19 02:36:00,52.5,50.6,21.26,WNW,293,0.0,4.0,93,0.00,,BKN200,0.00,VWS V14.00,2013-05-19 08:36:00,
2013-05-19 02:41:00,52.3,50.4,21.26,WNW,293,0.0,4.0,93,0.00,,BKN200,0.00,VWS V14.00,2013-05-19 08:41:00,
2013-05-19 02:46:00,52.3,50.4,21.26,WNW,292,0.0,4.0,93,0.00,,BKN200,0.00,VWS V14.00,2013-05-19 08:46:00,
2013-05-19 02:51:00,52.3,50.7,21.26,WNW,291,0.0,4.0,94,0.00,,BKN200,0.00,VWS V14.00,2013-05-19 08:51:00,
2013-05-19 02:56:00,52.3,50.7,21.26,WNW,291,0.0,4.0,94,0.00,,BKN200,0.00,VWS V14.00,2013-05-19 08:56:00,
2013-05-19 03:01:00,52.3,50.7,21.26,WNW,290,0.0,0.0,94,0.00,,BKN200,0.00,VWS V14.00,2013-05-19 09:01:00,
2013-05-19 03:06:00,52.3,50.7,21.26,WNW,291,0.0,0.0,94,0.00,,SCT200,0.00,VWS V14.00,2013-05-19 09:06:00,
2013-05-19 03:11:00,52.3,50.7,21.26,WNW,291,0.0,0.0,94,0.00,,SCT200,0.00,VWS V14.00,2013-05-19 09:11:00,
2013-05-19 03:16:00,52.3,50.7,21.26,WNW,290,0.0,0.0,94,0.00,,SCT200,0.00,VWS V14.00,2013-05-19 09:16:00,
2013-05-19 03:21:00,52.2,50.5,21.26,WNW,290,0.0,0.0,94,0.00,,SCT200,0.00,VWS V14.00,2013-05-19 09:21:00,
2013-05-19 03:26:00,52.2,50.5,21.26,WNW,290,0.0,0.0,94,0.00,,SCT200,0.00,VWS V14.00,2013-05-19 09:26:00,
2013-05-19 03:31:00,52.2,50.5,21.26,WNW,291,0.0,0.0,94,0.00,,SCT200,0.00,VWS V14.00,2013-05-19 09:31:00,
2013-05-19 03:36:00,52.2,50.5,21.26,WNW,291,0.0,0.0,94,0.00,,SCT200,0.00,VWS V14.00,2013-05-19 09:36:00,
2013-05-19 03:41:00,52.2,50.5,21.26,WNW,290,0.0,0.0,94,0.00,,SCT200,0.00,VWS V14.00,2013-05-19 09:41:00,
2013-05-19 03:46:00,52.2,50.5,21.26,WNW,290,0.0,0.0,94,0.00,,SCT200,0.00,VWS V14.00,2013-05-19 09:46:00,
2013-05-19 03:51:00,52.2,50.5,21.26,West,271,0.0,0.0,94,0.00,,SCT200,0.00,VWS V14.00,2013-05-19 09:51:00,
2013-05-19 03:56:00,52.2,50.5,21.26,West,271,0.0,0.0,94,0.00,,SCT200,0.00,VWS V14.00,2013-05-19 09:56:00,
2013-05-19 04:01:00,52.3,50.7,21.26,West,275,0.0,0.0,94,0.00,,SCT200,0.00,VWS V14.00,2013-05-19 10:01:00,
2013-05-19 04:06:00,52.3,50.7,21.26,WSW,256,3.1,4.0,94,0.00,,SCT200,0.00,VWS V14.00,2013-05-19 10:06:00,
2013-05-19 04:11:00,52.3,50.7,21.26,WNW,301,0.0,4.0,94,0.00,,SCT200,0.00,VWS V14.00,2013-05-19 10:11:00,
2013-05-19 04:16:00,52.3,50.7,21.26,NNW,328,0.0,4.0,94,0.00,,SCT200,0.00,VWS V14.00,2013-05-19 10:16:00,
2013-05-19 04:21:00,52.3,50.7,21.26,NNW,328,0.0,4.0,94,0.00,,SCT200,0.00,VWS V14.00,2013-05-19 10:21:00,
2013-05-19 04:26:00,52.3,50.7,21.26,NNW,327,0.0,4.0,94,0.00,,SCT200,0.00,VWS V14.00,2013-05-19 10:26:00,
2013-05-19 04:31:00,52.3,50.7,21.26,NW,317,0.0,4.9,94,0.00,,SCT200,0.00,VWS V14.00,2013-05-19 10:31:00,
2013-05-19 04:36:00,52.3,50.7,21.26,NW,321,0.0,4.9,94,0.00,,SCT200,0.00,VWS V14.00,2013-05-19 10:36:00,
2013-05-19 04:41:00,52.2,50.5,21.26,WNW,293,3.6,4.9,94,0.00,,SCT200,0.00,VWS V14.00,2013-05-19 10:41:00,
2013-05-19 04:46:00,52.2,50.5,21.26,NW,323,0.0,4.9,94,0.00,,SCT200,0.00,VWS V14.00,2013-05-19 10:46:00,
2013-05-19 04:51:00,52.2,50.5,21.26,NW,326,8.7,8.7,94,0.00,,SCT200,0.00,VWS V14.00,2013-05-19 10:51:00,
2013-05-19 04:55:00,52.0,50.3,21.26,NNW,329,0.0,8.7,94,0.00,,SCT200,0.00,VWS V14.00,2013-05-19 10:55:00,
2013-05-19 05:00:00,52.0,50.3,21.26,North,2,0.0,2.2,94,0.00,,SCT200,0.00,VWS V14.00,2013-05-19 11:00:00,
2013-05-19 05:05:00,51.8,50.1,21.26,NW,307,3.6,7.6,94,0.00,,SCT200,0.00,VWS V14.00,2013-05-19 11:05:00,
2013-05-19 05:10:00,51.8,50.1,21.26,NW,322,5.8,8.3,94,0.00,,SCT200,0.00,VWS V14.00,2013-05-19 11:10:00,
2013-05-19 05:15:00,51.6,50.0,21.26,NNW,341,8.1,10.1,94,0.00,,SCT200,0.00,VWS V14.00,2013-05-19 11:15:00,
2013-05-19 05:20:00,51.6,49.7,21.26,NW,309,8.7,10.1,93,0.00,,SCT200,0.00,VWS V14.00,2013-05-19 11:20:00,
2013-05-19 05:25:00,51.6,49.7,21.26,WNW,301,7.2,10.1,93,0.00,,SCT200,0.00,VWS V14.00,2013-05-19 11:25:00,
2013-05-19 05:30:00,51.6,49.7,21.26,NW,319,5.4,7.6,93,0.00,,SCT200,0.00,VWS V14.00,2013-05-19 11:30:00,
2013-05-19 05:35:00,51.6,49.7,21.26,NNW,336,3.6,7.6,93,0.00,,SCT200,0.00,VWS V14.00,2013-05-19 11:35:00,
2013-05-19 05:40:00,51.6,49.7,21.26,NNW,332,4.9,8.1,93,0.00,,SCT200,0.00,VWS V14.00,2013-05-19 11:40:00,
2013-05-19 05:45:00,51.6,49.7,21.26,West,261,0.0,8.1,93,0.00,,SCT200,0.00,VWS V14.00,2013-05-19 11:45:00,
2013-05-19 05:50:00,51.6,49.7,21.26,WSW,252,2.2,8.1,93,0.00,,SCT200,0.00,VWS V14.00,2013-05-19 11:50:00,
2013-05-19 05:55:00,51.6,49.7,21.26,WNW,302,3.1,8.1,93,0.00,,SCT200,0.00,VWS V14.00,2013-05-19 11:55:00,
2013-05-19 06:00:00,51.6,49.7,21.26,WNW,298,3.1,5.8,93,0.00,,SCT200,0.00,VWS V14.00,2013-05-19 12:00:00,
2013-05-19 06:05:00,51.6,49.7,21.26,West,272,4.9,6.3,93,0.00,,SCT200,0.00,VWS V14.00,2013-05-19 12:05:00,
2013-05-19 06:10:00,51.6,49.7,21.26,WNW,298,2.7,6.3,93,0.00,,SCT200,0.00,VWS V14.00,2013-05-19 12:10:00,
2013-05-19 06:15:00,51.6,49.7,21.26,North,353,2.7,6.3,93,0.00,,SCT200,0.00,VWS V14.00,2013-05-19 12:15:00,
2013-05-19 06:20:00,51.6,49.7,21.26,NW,316,3.1,8.3,93,0.00,,SCT200,0.00,VWS V14.00,2013-05-19 12:20:00,
2013-05-19 06:25:00,51.6,49.7,21.26,NNW,334,7.2,11.0,93,0.00,,SCT200,0.00,VWS V14.00,2013-05-19 12:25:00,
2013-05-19 06:30:00,51.6,49.4,21.26,NNW,333,8.1,8.3,92,0.00,,SCT200,0.00,VWS V14.00,2013-05-19 12:30:00,
2013-05-19 06:35:00,51.8,49.5,21.26,WNW,294,8.3,8.3,92,0.00,,SCT200,0.00,VWS V14.00,2013-05-19 12:35:00,
2013-05-19 06:40:00,51.8,49.3,21.26,North,1,6.3,10.5,91,0.00,,SCT200,0.00,VWS V14.00,2013-05-19 12:40:00,
2013-05-19 06:45:00,51.8,49.3,21.26,NW,320,5.8,10.5,91,0.00,,SCT200,0.00,VWS V14.00,2013-05-19 12:45:00,
2013-05-19 06:50:00,51.8,49.0,21.26,NW,319,8.1,11.4,90,0.00,,SCT200,0.00,VWS V14.00,2013-05-19 12:50:00,
2013-05-19 06:55:00,52.0,48.8,21.26,North,3,5.4,11.4,89,0.00,,SCT200,0.00,VWS V14.00,2013-05-19 12:55:00,
2013-05-19 07:00:00,52.0,48.8,21.26,NW,307,8.7,8.7,89,0.00,,SCT200,0.00,VWS V14.00,2013-05-19 13:00:00,
2013-05-19 07:05:00,52.0,48.8,21.26,NW,314,8.7,14.5,89,0.00,,SCT200,0.00,VWS V14.00,2013-05-19 13:05:00,
2013-05-19 07:10:00,51.8,48.7,21.26,NNW,343,6.3,14.5,89,0.00,,SCT200,0.00,VWS V14.00,2013-05-19 13:10:00,
2013-05-19 07:15:00,51.6,48.8,21.26,North,1,8.3,14.5,90,0.00,,SCT200,0.00,VWS V14.00,2013-05-19 13:15:00,
2013-05-19 07:20:00,51.6,49.1,21.26,NW,312,8.7,14.5,91,0.00,,SCT200,0.00,VWS V14.00,2013-05-19 13:20:00,
2013-05-19 07:25:00,51.4,49.2,21.26,NNW,338,10.5,14.5,92,0.00,,SCT200,0.00,VWS V14.00,2013-05-19 13:25:00,
2013-05-19 07:30:00,51.4,49.2,21.26,NW,314,8.1,12.3,92,0.00,,SCT200,0.00,VWS V14.00,2013-05-19 13:30:00,
2013-05-19 07:35:00,51.4,49.5,21.26,NNW,343,7.6,15.0,93,0.00,,SCT200,0.00,VWS V14.00,2013-05-19 13:35:00,
2013-05-19 07:40:00,51.4,49.5,21.26,NW,316,5.8,15.0,93,0.00,,SCT200,0.00,VWS V14.00,2013-05-19 13:40:00,
2013-05-19 07:45:00,51.3,49.6,21.26,NNW,343,5.4,15.0,94,0.00,,SCT200,0.00,VWS V14.00,2013-05-19 13:45:00,
2013-05-19 07:50:00,51.4,49.8,21.26,WNW,287,8.7,15.0,94,0.00,,SCT200,0.00,VWS V14.00,2013-05-19 13:50:00,
2013-05-19 07:55:00,51.4,50.1,21.26,NW,304,8.3,15.0,95,0.00,,SCT200,0.04,VWS V14.00,2013-05-19 13:55:00,
2013-05-19 08:00:00,51.4,50.1,21.26,NNW,339,8.1,8.1,95,0.00,,SCT200,0.04,VWS V14.00,2013-05-19 14:00:00,
2013-05-19 08:05:00,51.4,50.1,21.26,NNW,337,8.7,15.4,95,0.00,,FEW200,0.04,VWS V14.00,2013-05-19 14:05:00,
2013-05-19 08:10:00,51.4,50.1,21.26,North,353,8.3,15.4,95,0.00,,FEW200,0.04,VWS V14.00,2013-05-19 14:10:00,
2013-05-19 08:15:00,51.4,50.3,21.26,North,357,6.3,15.4,96,0.00,,FEW200,0.04,VWS V14.00,2013-05-19 14:15:00,
2013-05-19 08:20:00,51.4,50.3,21.26,NNW,342,7.6,16.8,96,0.00,,FEW200,0.04,VWS V14.00,2013-05-19 14:20:00,
2013-05-19 08:25:00,51.4,50.3,21.26,NW,312,6.3,16.8,96,0.00,,FEW200,0.04,VWS V14.00,2013-05-19 14:25:00,
2013-05-19 08:30:00,51.3,50.2,21.26,NNW,339,8.1,11.0,96,0.00,,FEW200,0.04,VWS V14.00,2013-05-19 14:30:00,
2013-05-19 08:35:00,51.3,50.2,21.26,NNW,333,8.1,13.2,96,0.00,,FEW200,0.04,VWS V14.00,2013-05-19 14:35:00,
2013-05-19 08:40:00,51.3,50.2,21.26,North,350,7.6,13.6,96,0.00,,FEW200,0.04,VWS V14.00,2013-05-19 14:40:00,
2013-05-19 08:45:00,51.3,50.2,21.26,North,353,3.1,13.6,96,0.00,,FEW200,0.04,VWS V14.00,2013-05-19 14:45:00,
2013-05-19 08:50:00,51.3,50.2,21.26,NNW,343,5.8,13.6,96,0.00,,FEW200,0.04,VWS V14.00,2013-05-19 14:50:00,
2013-05-19 08:55:00,51.3,50.2,21.26,NNW,336,4.9,13.6,96,0.00,,FEW200,0.04,VWS V14.00,2013-05-19 14:55:00,
2013-05-19 09:00:00,51.3,50.2,21.26,NW,324,10.1,10.1,96,0.00,,FEW200,0.04,VWS V14.00,2013-05-19 15:00:00,
2013-05-19 09:05:00,51.3,50.2,21.26,NNW,329,3.1,11.9,96,0.00,,FEW200,0.04,VWS V14.00,2013-05-19 15:05:00,
2013-05-19 09:10:00,51.1,50.0,21.26,NNW,333,10.5,12.8,96,0.00,,FEW200,0.04,VWS V14.00,2013-05-19 15:10:00,
2013-05-19 09:15:00,51.1,50.0,21.26,NNW,329,6.3,12.8,96,0.00,,FEW200,0.04,VWS V14.00,2013-05-19 15:15:00,
2013-05-19 09:20:00,50.9,49.8,21.26,WNW,291,7.6,15.0,96,0.00,,FEW200,0.04,VWS V14.00,2013-05-19 15:20:00,
2013-05-19 09:25:00,50.7,49.6,21.26,NNW,333,8.1,15.0,96,0.00,,FEW200,0.04,VWS V14.00,2013-05-19 15:25:00,
2013-05-19 09:30:00,50.7,49.6,21.26,WNW,293,7.6,7.6,96,0.04,,FEW200,0.08,VWS V14.00,2013-05-19 15:30:00,
2013-05-19 09:35:00,50.7,49.9,21.26,NNW,339,3.6,12.8,97,0.04,,FEW200,0.08,VWS V14.00,2013-05-19 15:35:00,
2013-05-19 09:40:00,50.7,49.9,21.26,NW,312,5.4,12.8,97,0.04,,FEW200,0.08,VWS V14.00,2013-05-19 15:40:00,
2013-05-19 09:45:00,50.7,49.9,21.26,NW,324,4.9,12.8,97,0.04,,FEW200,0.08,VWS V14.00,2013-05-19 15:45:00,
2013-05-19 09:50:00,50.9,50.1,21.26,WNW,282,5.8,12.8,97,0.04,,FEW200,0.08,VWS V14.00,2013-05-19 15:50:00,
2013-05-19 09:55:00,50.9,50.1,21.26,West,274,3.6,12.8,97,0.04,,FEW200,0.08,VWS V14.00,2013-05-19 15:55:00,
2013-05-19 10:00:00,50.9,50.1,21.26,NNW,344,6.3,6.3,97,0.04,,FEW200,0.08,VWS V14.00,2013-05-19 16:00:00,
2013-05-19 10:05:00,50.7,49.9,21.26,WNW,291,5.8,6.3,97,0.04,,FEW200,0.08,VWS V14.00,2013-05-19 16:05:00,
2013-05-19 10:10:00,50.7,49.9,21.26,NW,319,7.2,11.0,97,0.04,,FEW200,0.08,VWS V14.00,2013-05-19 16:10:00,
2013-05-19 10:15:00,50.7,49.9,21.26,WNW,295,2.7,11.0,97,0.04,,FEW200,0.16,VWS V14.00,2013-05-19 16:15:00,
2013-05-19 10:20:00,50.7,50.2,21.26,West,261,4.0,11.0,98,0.04,,FEW200,0.16,VWS V14.00,2013-05-19 16:20:00,
2013-05-19 10:25:00,50.9,50.4,21.26,NW,306,8.7,11.0,98,0.04,,FEW200,0.16,VWS V14.00,2013-05-19 16:25:00,
2013-05-19 10:30:00,50.9,50.4,21.26,NNW,340,4.0,5.4,98,0.04,,FEW200,0.16,VWS V14.00,2013-05-19 16:30:00,
2013-05-19 10:35:00,50.9,50.4,21.26,WNW,283,3.1,7.2,98,0.04,,FEW200,0.16,VWS V14.00,2013-05-19 16:35:00,
2013-05-19 10:40:00,51.1,50.5,21.26,West,264,11.9,11.9,98,0.04,,FEW200,0.16,VWS V14.00,2013-05-19 16:40:00,
2013-05-19 10:45:00,51.1,50.5,21.26,West,273,8.3,12.3,98,0.04,,FEW200,0.16,VWS V14.00,2013-05-19 16:45:00,
2013-05-19 10:50:00,50.9,50.4,21.26,West,268,8.7,13.2,98,0.04,,FEW200,0.16,VWS V14.00,2013-05-19 16:50:00,
2013-05-19 10:55:00,50.9,50.4,21.26,West,263,9.6,13.2,98,0.08,,FEW200,0.20,VWS V14.00,2013-05-19 16:55:00,
2013-05-19 11:00:00,51.1,50.5,21.26,West,278,2.2,2.7,98,0.08,,FEW200,0.20,VWS V14.00,2013-05-19 17:00:00,
2013-05-19 11:05:00,51.3,50.7,21.26,WNW,282,3.6,5.8,98,0.08,,CLR,0.20,VWS V14.00,2013-05-19 17:05:00,
2013-05-19 11:10:00,51.4,50.9,21.26,WNW,297,3.6,10.1,98,0.08,,CLR,0.20,VWS V14.00,2013-05-19 17:10:00,
2013-05-19 11:15:00,51.4,50.9,21.26,WNW,301,5.4,10.1,98,0.08,,CLR,0.20,VWS V14.00,2013-05-19 17:15:00,
2013-05-19 11:20:00,51.4,50.9,21.26,West,259,4.0,10.1,98,0.08,,CLR,0.20,VWS V14.00,2013-05-19 17:20:00,
2013-05-19 11:25:00,51.4,50.9,21.26,NNW,331,11.0,14.1,98,0.08,,CLR,0.20,VWS V14.00,2013-05-19 17:25:00,
2013-05-19 11:30:00,51.3,50.7,21.26,NW,315,5.8,10.1,98,0.08,,CLR,0.20,VWS V14.00,2013-05-19 17:30:00,
2013-05-19 11:35:00,51.1,50.5,21.26,NNW,335,6.7,12.3,98,0.08,,CLR,0.20,VWS V14.00,2013-05-19 17:35:00,
2013-05-19 11:40:00,50.9,50.4,21.26,West,279,15.9,15.9,98,0.08,,CLR,0.20,VWS V14.00,2013-05-19 17:40:00,
2013-05-19 11:45:00,50.7,50.2,21.26,WNW,285,7.6,16.8,98,0.04,,CLR,0.24,VWS V14.00,2013-05-19 17:45:00,
2013-05-19 11:50:00,50.7,50.2,21.26,West,278,8.7,16.8,98,0.04,,CLR,0.24,VWS V14.00,2013-05-19 17:50:00,
2013-05-19 11:55:00,50.7,50.2,21.26,WNW,295,6.3,16.8,98,0.04,,CLR,0.24,VWS V14.00,2013-05-19 17:55:00,
2013-05-19 12:00:00,50.7,50.2,21.26,WSW,258,12.3,12.3,98,0.04,,CLR,0.24,VWS V14.00,2013-05-19 18:00:00,
2013-05-19 12:05:00,51.1,50.5,21.26,SW,235,8.7,12.3,98,0.04,,CLR,0.24,VWS V14.00,2013-05-19 18:05:00,
2013-05-19 12:10:00,51.3,50.7,21.26,WSW,246,8.1,12.3,98,0.04,,CLR,0.24,VWS V14.00,2013-05-19 18:10:00,
2013-05-19 12:15:00,51.3,50.7,21.26,WNW,284,8.7,12.3,98,0.04,,CLR,0.24,VWS V14.00,2013-05-19 18:15:00,
2013-05-19 12:20:00,51.4,50.9,21.26,West,275,5.8,12.3,98,0.04,,CLR,0.24,VWS V14.00,2013-05-19 18:20:00,
2013-05-19 12:25:00,51.8,51.3,21.26,NNW,338,4.0,12.3,98,0.04,,CLR,0.24,VWS V14.00,2013-05-19 18:25:00,
2013-05-19 12:30:00,51.8,51.3,21.26,WSW,237,4.0,6.3,98,0.04,,CLR,0.24,VWS V14.00,2013-05-19 18:30:00,
2013-05-19 12:35:00,51.8,51.3,21.26,NW,304,6.3,13.2,98,0.04,,CLR,0.24,VWS V14.00,2013-05-19 18:35:00,
2013-05-19 12:40:00,51.8,51.3,21.26,NW,322,12.3,13.2,98,0.04,,CLR,0.24,VWS V14.00,2013-05-19 18:40:00,
2013-05-19 12:45:00,51.6,51.1,21.26,West,276,5.8,15.0,98,0.04,,CLR,0.24,VWS V14.00,2013-05-19 18:45:00,
2013-05-19 12:50:00,51.6,51.1,21.26,WSW,256,4.0,15.0,98,0.04,,CLR,0.24,VWS V14.00,2013-05-19 18:50:00,
2013-05-19 12:55:00,51.6,51.1,21.26,NW,314,7.6,15.0,98,0.04,,CLR,0.28,VWS V14.00,2013-05-19 18:55:00,
2013-05-19 13:00:00,51.6,51.1,21.26,NW,317,4.0,5.8,98,0.04,,CLR,0.28,VWS V14.00,2013-05-19 19:00:00,
2013-05-19 13:05:00,51.6,51.1,21.26,NNW,339,7.6,16.8,98,0.04,,FEW060,0.28,VWS V14.00,2013-05-19 19:05:00,
2013-05-19 13:10:00,51.6,51.1,21.26,NW,313,7.6,16.8,98,0.04,,FEW060,0.28,VWS V14.00,2013-05-19 19:10:00,
2013-05-19 13:15:00,51.8,51.3,21.26,NNW,340,12.8,16.8,98,0.04,,FEW060,0.28,VWS V14.00,2013-05-19 19:15:00,
2013-05-19 13:20:00,51.8,51.3,21.26,NW,320,17.4,17.4,98,0.04,,FEW060,0.28,VWS V14.00,2013-05-19 19:20:00,
2013-05-19 13:25:00,51.8,51.3,21.26,WNW,297,5.8,17.4,98,0.04,,FEW060,0.28,VWS V14.00,2013-05-19 19:25:00,
2013-05-19 13:30:00,51.6,51.1,21.26,NW,308,8.7,10.5,98,0.04,,FEW060,0.28,VWS V14.00,2013-05-19 19:30:00,
2013-05-19 13:35:00,51.4,50.6,21.26,West,279,2.2,13.6,97,0.04,,FEW060,0.28,VWS V14.00,2013-05-19 19:35:00,
2013-05-19 13:40:00,51.6,50.8,21.26,NNW,340,4.0,13.6,97,0.04,,FEW060,0.28,VWS V14.00,2013-05-19 19:40:00,
2013-05-19 13:45:00,51.6,51.1,21.26,WNW,293,3.1,13.6,98,0.04,,FEW060,0.28,VWS V14.00,2013-05-19 19:45:00,
2013-05-19 13:50:00,51.8,51.0,21.26,West,268,4.0,13.6,97,0.04,,FEW060,0.28,VWS V14.00,2013-05-19 19:50:00,
2013-05-19 13:55:00,51.6,51.1,21.26,WNW,300,5.8,18.8,98,0.04,,FEW060,0.28,VWS V14.00,2013-05-19 19:55:00,
2013-05-19 14:00:00,51.8,51.0,21.26,NNW,332,9.6,9.6,97,0.04,,FEW060,0.28,VWS V14.00,2013-05-19 20:00:00,
2013-05-19 14:05:00,51.8,51.0,21.26,NW,317,7.6,9.6,97,0.04,,FEW060,0.28,VWS V14.00,2013-05-19 20:05:00,
2013-05-19 14:10:00,51.8,51.0,21.26,NW,318,3.1,9.6,97,0.04,,FEW060,0.28,VWS V14.00,2013-05-19 20:10:00,
2013-05-19 14:15:00,52.0,51.4,21.26,NW,320,4.9,9.6,98,0.04,,FEW060,0.28,VWS V14.00,2013-05-19 20:15:00,
2013-05-19 14:20:00,52.0,51.2,21.26,North,357,10.5,17.4,97,0.04,,FEW060,0.28,VWS V14.00,2013-05-19 20:20:00,
2013-05-19 14:25:00,52.0,51.4,21.26,NNW,333,7.6,17.4,98,0.04,,FEW060,0.31,VWS V14.00,2013-05-19 20:25:00,
2013-05-19 14:30:00,51.8,51.0,21.26,NW,325,5.8,5.8,97,0.04,,FEW060,0.31,VWS V14.00,2013-05-19 20:30:00,
2013-05-19 14:35:00,51.8,51.0,21.26,NNW,330,9.2,19.7,97,0.04,,FEW060,0.31,VWS V14.00,2013-05-19 20:35:00,
2013-05-19 14:40:00,51.8,51.0,21.26,WNW,302,13.6,19.7,97,0.04,,FEW060,0.31,VWS V14.00,2013-05-19 20:40:00,
2013-05-19 14:45:00,52.2,51.3,21.26,NNW,338,24.6,24.6,97,0.04,,FEW060,0.31,VWS V14.00,2013-05-19 20:45:00,
2013-05-19 14:50:00,52.2,51.3,21.26,North,353,15.0,24.6,97,0.04,,FEW060,0.31,VWS V14.00,2013-05-19 20:50:00,
2013-05-19 14:55:00,52.2,51.3,21.26,NNW,331,10.1,24.6,97,0.04,,FEW060,0.31,VWS V14.00,2013-05-19 20:55:00,
2013-05-19 15:00:00,52.3,51.5,21.26,NNW,338,8.1,8.1,97,0.04,,FEW060,0.31,VWS V14.00,2013-05-19 21:00:00,
2013-05-19 15:05:00,52.5,51.7,21.26,NW,325,10.5,12.3,97,0.04,,FEW060,0.31,VWS V14.00,2013-05-19 21:05:00,
2013-05-19 15:10:00,52.5,51.7,21.26,WNW,287,10.1,12.3,97,0.04,,FEW060,0.31,VWS V14.00,2013-05-19 21:10:00,
2013-05-19 15:15:00,52.2,51.3,21.26,NNW,343,6.3,13.6,97,0.04,,FEW060,0.31,VWS V14.00,2013-05-19 21:15:00,
2013-05-19 15:20:00,52.0,50.9,21.26,NNW,341,5.4,17.4,96,0.04,,FEW060,0.31,VWS V14.00,2013-05-19 21:20:00,
2013-05-19 15:25:00,51.6,50.8,21.26,NNW,334,6.3,17.4,97,0.04,,FEW060,0.31,VWS V14.00,2013-05-19 21:25:00,
2013-05-19 15:30:00,51.6,50.8,21.26,NW,312,8.1,10.1,97,0.04,,FEW060,0.31,VWS V14.00,2013-05-19 21:30:00,
2013-05-19 15:35:00,51.4,50.6,21.26,NW,315,8.1,15.4,97,0.04,,FEW060,0.31,VWS V14.00,2013-05-19 21:35:00,
2013-05-19 15:40:00,51.4,50.6,21.26,WNW,297,4.9,15.4,97,0.04,,FEW060,0.31,VWS V14.00,2013-05-19 21:40:00,
2013-05-19 15:45:00,51.4,50.6,21.26,NW,325,6.3,15.4,97,0.04,,FEW060,0.35,VWS V14.00,2013-05-19 21:45:00,
2013-05-19 15:50:00,51.4,50.6,21.26,West,266,8.7,15.4,97,0.04,,FEW060,0.35,VWS V14.00,2013-05-19 21:50:00,
2013-05-19 15:55:00,51.3,50.4,21.26,NNW,342,8.1,15.4,97,0.04,,FEW060,0.35,VWS V14.00,2013-05-19 21:55:00,
2013-05-19 16:00:00,51.6,50.5,21.26,NW,326,13.2,13.2,96,0.04,,FEW060,0.35,VWS V14.00,2013-05-19 22:00:00,
2013-05-19 16:05:00,51.6,50.5,21.26,North,0,6.3,15.0,96,0.04,,FEW060,0.35,VWS V14.00,2013-05-19 22:05:00,
2013-05-19 16:10:00,51.8,50.7,21.26,North,353,6.3,15.0,96,0.04,,FEW060,0.35,VWS V14.00,2013-05-19 22:10:00,
2013-05-19 16:15:00,52.0,50.9,21.26,NW,321,4.0,15.0,96,0.04,,FEW060,0.35,VWS V14.00,2013-05-19 22:15:00,
2013-05-19 16:20:00,52.2,51.1,21.26,NW,317,7.6,15.0,96,0.04,,FEW060,0.35,VWS V14.00,2013-05-19 22:20:00,
2013-05-19 16:25:00,52.0,50.9,21.26,NNW,331,5.8,15.0,96,0.04,,FEW060,0.35,VWS V14.00,2013-05-19 22:25:00,
2013-05-19 16:30:00,52.2,51.1,21.26,West,281,6.3,6.3,96,0.04,,FEW060,0.35,VWS V14.00,2013-05-19 22:30:00,
2013-05-19 16:35:00,52.2,51.3,21.26,WNW,297,7.6,8.7,97,0.04,,FEW060,0.35,VWS V14.00,2013-05-19 22:35:00,
2013-05-19 16:40:00,52.0,50.9,21.26,NNW,329,6.3,15.0,96,0.04,,FEW060,0.35,VWS V14.00,2013-05-19 22:40:00,
2013-05-19 16:45:00,52.0,50.9,21.26,WSW,252,7.6,15.0,96,0.04,,FEW060,0.35,VWS V14.00,2013-05-19 22:45:00,
2013-05-19 16:50:00,52.2,51.3,21.26,North,0,6.3,15.0,97,0.04,,FEW060,0.35,VWS V14.00,2013-05-19 22:50:00,
2013-05-19 16:55:00,52.2,51.3,21.26,NW,317,5.4,15.0,97,0.04,,FEW060,0.35,VWS V14.00,2013-05-19 22:55:00,
2013-05-19 17:00:00,52.3,51.5,21.26,West,265,3.6,3.6,97,0.04,,FEW060,0.39,VWS V14.00,2013-05-19 23:00:00,
2013-05-19 17:05:00,52.5,52.0,21.26,North,3,4.0,8.7,98,0.04,,SCT200,0.39,VWS V14.00,2013-05-19 23:05:00,
2013-05-19 17:10:00,52.7,52.2,21.26,NNW,346,3.6,8.7,98,0.04,,SCT200,0.39,VWS V14.00,2013-05-19 23:10:00,
2013-05-19 17:15:00,52.9,52.3,21.26,NNW,331,5.4,8.7,98,0.04,,SCT200,0.39,VWS V14.00,2013-05-19 23:15:00,
2013-05-19 17:20:00,52.7,52.2,21.26,West,274,4.9,8.7,98,0.04,,SCT200,0.39,VWS V14.00,2013-05-19 23:20:00,
2013-05-19 17:25:00,52.5,52.0,21.26,WNW,286,4.0,14.5,98,0.04,,SCT200,0.39,VWS V14.00,2013-05-19 23:25:00,
2013-05-19 17:30:00,52.5,51.7,21.26,West,265,4.9,4.9,97,0.04,,SCT200,0.39,VWS V14.00,2013-05-19 23:30:00,
2013-05-19 17:35:00,52.3,51.5,21.26,West,275,0.0,7.6,97,0.04,,SCT200,0.39,VWS V14.00,2013-05-19 23:35:00,
2013-05-19 17:40:00,52.5,52.0,21.26,North,357,2.2,7.6,98,0.04,,SCT200,0.39,VWS V14.00,2013-05-19 23:40:00,
2013-05-19 17:45:00,52.3,51.8,21.26,West,270,0.0,8.3,98,0.04,,SCT200,0.39,VWS V14.00,2013-05-19 23:45:00,
2013-05-19 17:50:00,52.3,51.8,21.26,NNW,331,2.7,8.3,98,0.04,,SCT200,0.39,VWS V14.00,2013-05-19 23:50:00,
2013-05-19 17:55:00,52.3,51.8,21.26,NW,306,2.2,8.3,98,0.04,,SCT200,0.39,VWS V14.00,2013-05-19 23:55:00,
2013-05-19 18:00:00,52.5,52.0,21.26,NW,318,2.7,8.3,98,0.04,,SCT200,0.39,VWS V14.00,2013-05-20 00:00:00,
2013-05-19 18:05:00,52.3,51.8,21.26,West,274,5.4,7.6,98,0.04,,SCT200,0.39,VWS V14.00,2013-05-20 00:05:00,
2013-05-19 18:10:00,52.3,51.8,21.26,West,271,3.1,8.7,98,0.04,,SCT200,0.39,VWS V14.00,2013-05-20 00:10:00,
2013-05-19 18:15:00,52.3,51.8,21.26,NW,316,6.3,8.7,98,0.04,,SCT200,0.39,VWS V14.00,2013-05-20 00:15:00,
2013-05-19 18:20:00,52.3,51.8,21.26,North,8,4.0,8.7,98,0.04,,SCT200,0.39,VWS V14.00,2013-05-20 00:20:00,
2013-05-19 18:25:00,52.2,51.6,21.26,WNW,300,5.4,8.7,98,0.04,,SCT200,0.39,VWS V14.00,2013-05-20 00:25:00,
2013-05-19 18:30:00,52.2,51.6,21.26,NNW,339,8.7,8.7,98,0.04,,SCT200,0.43,VWS V14.00,2013-05-20 00:30:00,
2013-05-19 18:35:00,52.0,51.4,21.26,NNW,335,5.4,13.2,98,0.04,,SCT200,0.43,VWS V14.00,2013-05-20 00:35:00,
2013-05-19 18:40:00,52.0,51.4,21.26,NNW,327,6.3,13.6,98,0.04,,SCT200,0.43,VWS V14.00,2013-05-20 00:40:00,
2013-05-19 18:45:00,52.0,51.4,21.26,NW,305,10.1,13.6,98,0.04,,SCT200,0.43,VWS V14.00,2013-05-20 00:45:00,
2013-05-19 18:50:00,52.0,51.4,21.26,WNW,289,7.6,13.6,98,0.04,,SCT200,0.43,VWS V14.00,2013-05-20 00:50:00,
2013-05-19 18:55:00,52.0,51.4,21.26,NNW,346,10.1,13.6,98,0.04,,SCT200,0.43,VWS V14.00,2013-05-20 00:55:00,
2013-05-19 19:00:00,52.0,51.4,21.26,NNW,342,10.5,13.6,98,0.04,,SCT200,0.43,VWS V14.00,2013-05-20 01:00:00,
2013-05-19 19:05:00,52.0,51.4,21.26,NW,324,5.4,11.0,98,0.04,,FEW070,0.43,VWS V14.00,2013-05-20 01:05:00,
2013-05-19 19:10:00,52.0,51.4,21.26,NW,324,8.1,12.8,98,0.04,,FEW070,0.43,VWS V14.00,2013-05-20 01:10:00,
2013-05-19 19:15:00,52.0,51.4,21.26,NW,324,8.1,12.8,98,0.04,,FEW070,0.43,VWS V14.00,2013-05-20 01:15:00,
2013-05-19 19:20:00,52.0,51.4,21.26,NNW,337,3.1,12.8,98,0.04,,FEW070,0.43,VWS V14.00,2013-05-20 01:20:00,
2013-05-19 19:25:00,52.0,51.4,21.26,North,0,8.1,12.8,98,0.04,,FEW070,0.43,VWS V14.00,2013-05-20 01:25:00,
2013-05-19 19:30:00,51.8,51.3,21.26,North,357,4.0,12.8,98,0.04,,FEW070,0.43,VWS V14.00,2013-05-20 01:30:00,
2013-05-19 19:35:00,51.8,51.3,21.26,NW,305,5.8,10.5,98,0.04,,FEW070,0.43,VWS V14.00,2013-05-20 01:35:00,
2013-05-19 19:40:00,52.0,51.4,21.26,NNE,18,6.3,10.5,98,0.04,,FEW070,0.43,VWS V14.00,2013-05-20 01:40:00,
2013-05-19 19:45:00,51.8,51.3,21.26,NNW,346,5.8,10.5,98,0.04,,FEW070,0.43,VWS V14.00,2013-05-20 01:45:00,
2013-05-19 19:50:00,51.8,51.3,21.26,North,349,5.8,12.8,98,0.04,,FEW070,0.43,VWS V14.00,2013-05-20 01:50:00,
2013-05-19 19:54:00,51.6,51.1,21.26,North,357,6.3,12.8,98,0.04,,FEW070,0.43,VWS V14.00,2013-05-20 01:54:00,
2013-05-19 19:59:00,51.6,51.1,21.26,WSW,237,5.4,12.8,98,0.04,,FEW070,0.43,VWS V14.00,2013-05-20 01:59:00,
2013-05-19 20:04:00,51.6,51.1,21.26,North,4,11.0,12.3,98,0.04,,FEW070,0.43,VWS V14.00,2013-05-20 02:04:00,
2013-05-19 20:09:00,51.6,51.1,21.26,West,274,5.8,14.1,98,0.04,,FEW070,0.43,VWS V14.00,2013-05-20 02:09:00,
2013-05-19 20:14:00,51.6,51.1,21.26,NW,311,3.6,14.1,98,0.04,,FEW070,0.43,VWS V14.00,2013-05-20 02:14:00,
2013-05-19 20:19:00,51.6,51.1,21.26,WNW,301,11.0,14.1,98,0.04,,FEW070,0.43,VWS V14.00,2013-05-20 02:19:00,
2013-05-19 20:24:00,51.6,51.1,21.26,NNW,337,7.6,14.1,98,0.04,,FEW070,0.43,VWS V14.00,2013-05-20 02:24:00,
2013-05-19 20:29:00,51.6,50.8,21.26,NW,306,6.3,14.1,97,0.04,,FEW070,0.43,VWS V14.00,2013-05-20 02:29:00,
2013-05-19 20:34:00,51.6,51.1,21.26,NW,319,6.3,11.0,98,0.04,,FEW070,0.43,VWS V14.00,2013-05-20 02:34:00,
2013-05-19 20:39:00,51.6,51.1,21.26,NW,309,5.8,11.4,98,0.00,,FEW070,0.43,VWS V14.00,2013-05-20 02:39:00,
2013-05-19 20:44:00,51.8,51.3,21.26,NNW,335,7.6,11.4,98,0.00,,FEW070,0.43,VWS V14.00,2013-05-20 02:44:00,
2013-05-19 20:49:00,52.0,51.4,21.26,North,357,8.1,11.4,98,0.00,,FEW070,0.43,VWS V14.00,2013-05-20 02:49:00,
2013-05-19 20:54:00,52.2,51.3,21.26,NW,318,2.7,11.4,97,0.00,,FEW070,0.43,VWS V14.00,2013-05-20 02:54:00,
2013-05-19 20:59:00,52.2,51.3,21.26,NNW,335,5.4,11.4,97,0.00,,FEW070,0.43,VWS V14.00,2013-05-20 02:59:00,
2013-05-19 21:04:00,52.2,51.3,21.26,NNW,336,5.4,11.0,97,0.00,,SCT200,0.43,VWS V14.00,2013-05-20 03:04:00,
2013-05-19 21:09:00,52.2,51.1,21.26,NNW,342,10.5,12.3,96,0.00,,SCT200,0.43,VWS V14.00,2013-05-20 03:09:00,
2013-05-19 21:14:00,51.8,50.4,21.26,NW,310,8.3,13.2,95,0.00,,SCT200,0.43,VWS V14.00,2013-05-20 03:14:00,
2013-05-19 21:19:00,51.6,50.2,21.26,NNW,331,4.0,13.2,95,0.00,,SCT200,0.43,VWS V14.00,2013-05-20 03:19:00,
2013-05-19 21:24:00,51.4,49.8,21.26,North,353,0.0,13.2,94,0.00,,SCT200,0.43,VWS V14.00,2013-05-20 03:24:00,
2013-05-19 21:29:00,51.1,49.4,21.26,West,264,4.9,15.0,94,0.00,,SCT200,0.43,VWS V14.00,2013-05-20 03:29:00,
2013-05-19 21:34:00,50.7,48.8,21.26,WNW,300,5.8,8.1,93,0.00,,SCT200,0.43,VWS V14.00,2013-05-20 03:34:00,
2013-05-19 21:39:00,50.5,48.6,21.26,NNW,332,4.0,8.1,93,0.00,,SCT200,0.43,VWS V14.00,2013-05-20 03:39:00,
2013-05-19 21:44:00,50.4,48.4,21.26,NNW,340,8.1,10.5,93,0.00,,SCT200,0.43,VWS V14.00,2013-05-20 03:44:00,
2013-05-19 21:49:00,50.2,48.2,21.26,NNW,344,7.6,12.8,93,0.00,,SCT200,0.43,VWS V14.00,2013-05-20 03:49:00,
2013-05-19 21:54:00,50.0,48.1,21.26,North,0,8.3,12.8,93,0.00,,SCT200,0.43,VWS V14.00,2013-05-20 03:54:00,
2013-05-19 21:59:00,50.0,47.8,21.26,NNW,336,8.7,15.0,92,0.00,,SCT200,0.43,VWS V14.00,2013-05-20 03:59:00,
2013-05-19 22:01:00,49.8,47.9,21.26,WNW,302,8.1,10.1,93,0.00,,SCT200,0.43,VWS V14.00,2013-05-20 04:01:00,
2013-05-19 22:06:00,49.8,47.6,21.26,NW,326,10.1,13.2,92,0.00,,SCT200,0.43,VWS V14.00,2013-05-20 04:06:00,
2013-05-19 22:11:00,49.8,47.6,21.26,NW,309,11.0,15.4,92,0.00,,SCT200,0.43,VWS V14.00,2013-05-20 04:11:00,
2013-05-19 22:16:00,50.0,47.5,21.26,NW,308,10.5,15.9,91,0.00,,SCT200,0.43,VWS V14.00,2013-05-20 04:16:00,
2013-05-19 22:21:00,49.8,47.0,21.26,NNW,340,10.5,16.8,90,0.00,,SCT200,0.43,VWS V14.00,2013-05-20 04:21:00,
2013-05-19 22:26:00,49.8,47.0,21.26,NW,314,7.6,16.8,90,0.00,,SCT200,0.43,VWS V14.00,2013-05-20 04:26:00,
2013-05-19 22:31:00,49.8,47.3,21.26,WNW,300,8.7,17.4,91,0.00,,SCT200,0.43,VWS V14.00,2013-05-20 04:31:00,
2013-05-19 22:36:00,50.0,47.5,21.26,ESE,112,8.7,17.4,91,0.00,,SCT200,0.43,VWS V14.00,2013-05-20 04:36:00,
2013-05-19 22:41:00,49.8,47.6,21.26,NNW,342,5.8,17.4,92,0.00,,SCT200,0.43,VWS V14.00,2013-05-20 04:41:00,
2013-05-19 22:46:00,49.8,47.6,21.26,North,357,5.4,17.4,92,0.00,,SCT200,0.43,VWS V14.00,2013-05-20 04:46:00,
2013-05-19 22:51:00,49.8,47.9,21.26,North,353,8.7,17.4,93,0.00,,SCT200,0.43,VWS V14.00,2013-05-20 04:51:00,
2013-05-19 22:56:00,49.8,47.9,21.26,NNW,328,6.3,17.4,93,0.00,,SCT200,0.43,VWS V14.00,2013-05-20 04:56:00,
2013-05-19 23:01:00,49.8,47.9,21.26,North,0,5.8,12.3,93,0.00,,SCT200,0.43,VWS V14.00,2013-05-20 05:01:00,
2013-05-19 23:06:00,49.8,48.2,21.26,NW,314,11.0,15.4,94,0.00,,SCT200,0.43,VWS V14.00,2013-05-20 05:06:00,
2013-05-19 23:11:00,49.8,48.2,21.26,NW,314,5.8,19.2,94,0.00,,SCT200,0.43,VWS V14.00,2013-05-20 05:11:00,
2013-05-19 23:16:00,49.6,48.0,21.26,NW,314,5.8,19.2,94,0.00,,SCT200,0.43,VWS V14.00,2013-05-20 05:16:00,
2013-05-19 23:21:00,49.6,48.0,21.26,NNW,337,12.8,19.2,94,0.00,,SCT200,0.43,VWS V14.00,2013-05-20 05:21:00,
2013-05-19 23:26:00,49.5,48.1,21.26,NNW,329,8.1,19.2,95,0.00,,SCT200,0.43,VWS V14.00,2013-05-20 05:26:00,
2013-05-19 23:31:00,49.5,48.1,21.26,North,357,8.7,11.0,95,0.00,,SCT200,0.43,VWS V14.00,2013-05-20 05:31:00,
2013-05-19 23:36:00,49.5,48.1,21.26,NNW,335,5.8,12.8,95,0.00,,SCT200,0.43,VWS V14.00,2013-05-20 05:36:00,
2013-05-19 23:41:00,49.5,48.1,21.26,West,262,3.1,12.8,95,0.00,,SCT200,0.47,VWS V14.00,2013-05-20 05:41:00,
2013-05-19 23:46:00,49.5,48.1,21.26,West,275,2.7,12.8,95,0.00,,SCT200,0.47,VWS V14.00,2013-05-20 05:46:00,
2013-05-19 23:51:00,49.5,48.4,21.26,WNW,284,5.4,12.8,96,0.00,,SCT200,0.47,VWS V14.00,2013-05-20 05:51:00,
2013-05-19 23:56:00,49.5,48.4,21.26,NNW,334,3.1,12.8,96,0.00,,SCT200,0.47,VWS V14.00,2013-05-20 05:56:00,